Race Results for
Cascade Cycling Classic
Bend, OR
(Event Information)
Road Race on 07/19/2013

Note: Ranking points are NOT upgrade points. An explanation of ranking points can be found here.


Men - Pro/Cat 1 - Nrc Stage

 Place Points NameCity, StateTime USAC #BibTeam
1109.63 Serghei TVETCOV (1 - Pro)   Alpharetta, GA3:09:32 341418  57 UCI CT: Jelly Belly Cycling*
2110.16 Travis MCCABE (1 - Cat1)   Tucson, AZ3:09:32 268330  175 ELBOWZ RACING p/b Boneshaker
3110.69 Chad HAGA (2 - Pro)   Colorado Springs, CO3:09:32 248479  26 UCI CT/WPT: Team Optum p/b Kelly Benefit Strategies*
4111.22 Joey ROSSKOPF (3 - Pro)   Athens, GA3:09:32 223318  167 Hincapie Sportswear
5111.75 Francisco MANCEBO (4 - Pro)   Dahlonega, GA3:09:32 334418  5hr Energy p/b Kenda
6112.28 Gavin MANNION (5 - Pro)   Dedham, MA3:09:33 218736  45 Bontrager Cycling Team
7112.81 Cesar GRAJALES   Atlanta, GA3:09:33 401944  192 Predator Carbon Repair
8113.34 Phillip GAIMON   North Hollywood, CA3:09:34 211475  12 BISSELL Pro Cycling
9113.87 Chris BALDWIN (6 - Pro)   Boulder, CO3:09:36 2384  14 BISSELL Pro Cycling
10114.40 Nathaniel WILSON (7 - Pro)   Boulder, CO3:09:49 207985  48 Bontrager Cycling Team
11114.93 Jasper STUYVEN (2 - Cat1)   Austin, TX3:09:49 374546  41 Bontrager Cycling Team
12115.46 Oscar CLARK (8 - Pro)   Athens, GA3:09:49 221975  163 Hincapie Sportswear
13115.99 Jesse ANTHONY (9 - Pro)   Newbury Park, CA3:09:49 154883  22 Optum p/b Kelly Benefit Strategies
14116.52 Dion SMITH   Atlanta, GA3:09:49 404433  198 Predator Carbon Repair
15 Adam M DE VOS   3:09:49  73 Trek Red Truck p/b Mosaic Home
16117.58 Logan OWEN (3 - Cat1)   Bremerton, WA3:09:49 222488  37 California Giant/Specialized
17118.11 James H ORAM (4 - Cat1)   Auckland New Zealand3:09:49 427738  42 Bontrager Cycling Team
18118.64 Andres Diaz Corrales   Boise, ID3:09:49 334670  172 ELBOWZ RACING p/b Boneshaker
19119.17 Johnathan FRETER (5 - Cat1)   Columbus, OH3:09:49 266654  142 Fire Fighters Cycling
20119.70 Morgan SCHMITT (10 - Pro)   Woodinville, WA3:09:49 189118  56 Jelly Belly p/b Kenda
21120.23 Flavio DE LUNA   3:09:49 247406  122 Team SmartStop-Mountain Khakis
22120.76 Nate ENGLISH (11 - Pro)   Berkeley, CA3:09:49 258309  5hr Energy p/b Kenda
23 Jakub NOVAK   3:09:49  105 BMC Development Team
24121.82 Taylor EISENHART (6 - Cat1)   Lehi, UT3:09:49 237328  102 BMC Development Team
25 Joe LEWIS   3:10:25  164 Hincapie Sportswear
26122.88 Emerson ORONTE (12 - Pro)   Boulder, CO3:10:25 222542  54 Jelly Belly p/b Kenda
27123.41 Robin CARPENTER (13 - Pro)   Philadelphia, PA3:10:25 229481  162 Hincapie Sportswear
28123.94 Connor O'LEARY (14 - Pro)   Salt Lake City, UT3:10:25 209217  46 Bontrager Cycling Team
29124.47 Nic HAMILTON   3:10:25 397982  53 Jelly Belly p/b Kenda
30125.00 Chris PUTT (7 - Cat1)   Parkcity, UT3:10:25 282625  112 Canyon Bicycles- Shimano
31125.53 Jon HORNBECK (8 - Cat1)   Wildomar, CA3:10:25 288624  63 Hagens Berman Cycling
32126.06 Stephen LEECE (9 - Cat1)   San Luis Obispo, CA3:10:25 282569  31 California Giant/Specialized
33126.59 Sam BASSETTI (10 - Cat1)   Santa Rosa, CA3:10:25 237712  33 California Giant/Specialized
34127.12 James F SCHURMAN (11 - Cat1)   Deerfield Beach, FL3:10:25 284479  216 Champion system pb Stan's
35127.65 Tom ZIRBEL (15 - Pro)   Boulder, CO3:10:25 209308  21 Optum p/b Kelly Benefit Strategies
36128.18 Robin ECKMANN (12 - Cat1)   Boulder, CO3:10:25 254025  34 California Giant/Specialized
37128.71 Daniel EATON (13 - Cat1)   Mesa, AZ3:10:25 306276  223 Gateway Harley-Davidson/Trek
38129.24 Stefano BARBERI (14 - Cat1)   Newbury Park, CA3:10:25 136696  32 California Giant/Specialized
39129.77 Jake ARNOLD (15 - Cat1)   Fort Collins, CO3:10:25 259024  151 Team Rio Grande Cycling
40130.30 Shane BRALEY (16 - Cat1)   Stuart, FL3:10:25 139426  214 Champion system pb Stan's
41130.83 Josh YEATON (17 - Cat1)   Boulder, CO3:10:25 233175  136 Horizon Organic/Panache
42131.36 Erik SLACK (18 - Cat1)   Meridian, ID3:10:25 208936  114 Canyon Bicycles- Shimano
43131.89 Jackson LONG (19 - Cat1)   Boulder, CO3:10:25 246024  133 Horizon Organic/Panache
44132.42 Cameron V COGBURN (20 - Cat1)   Cambridge, MA3:10:25 235379  213 CCB Racing
45132.95 Eder FRAYRE   Chula Vista, CA3:10:25 412590  233 Calimax
46133.48 Scott TIETZEL (21 - Cat1)   Boulder, CO3:10:25 143903  157 Team Rio Grande Cycling
47134.01 Alex HAGMAN (16 - Pro)   Fort Collins, CO3:10:25 173228  52 Jelly Belly p/b Kenda
48134.54 Chris WINN (22 - Cat1)   Lakewood, CO3:10:25 292547  135 Horizon Organic/Panache
49135.07 Zac NOONAN (23 - Cat1)   Kutztown, PA3:10:25 249618  220 D3Devo p/b Airgas
50135.60 Maxim JENKINS (17 - Pro)   Citrus Heights, CA3:10:25 195652  5hr Energy p/b Kenda
51136.13 David SANTOS (24 - Cat1)   El Cajon, CA3:10:25 278526  96 CashCall Mortgage
52136.66 Carter JONES (18 - Pro)   Boulder, CO3:10:25 222644  11 BISSELL Pro Cycling
53137.19 Garrett MCLEOD   3:10:25 434257  86 Team H&R Block
54137.72 Taylor SHELDEN (19 - Pro)   Louisville, CO3:10:25 211114  5hr Energy p/b Kenda
55138.25 Joseph SCHMALZ (25 - Cat1)   Lawrence, KS3:10:25 197714  176 ELBOWZ RACING p/b Boneshaker
56138.78 Jonathan TEETER (26 - Cat1)   Guerneville, CA3:10:25 291414  250 Marc Pro - Strava
57139.31 Coulton J HARTRICH (27 - Cat1)   Juno Beach, FL3:10:25 286536  211 Astellas Oncology
58139.84 Aurelien PASSERON (28 - Cat1)   La Verne, CA3:10:25 375188  197 Predator Carbon Repair
59140.37 Tanner PUTT (20 - Pro)   Park City, UT3:11:11 216553  47 Bontrager Cycling Team
60140.90 Jordan CHEYNE   3:11:26 379306  224 Russ Hays Accent Inns p/b PCC
61141.43 Steven DAVIS (29 - Cat1)   San Diego, CA3:11:26 256520  228 Spy Giant
62141.96 Jesse GOODRICH (30 - Cat1)   Louisville, CO3:11:26 276415  38 California Giant/Specialized
63 Robin CLEGG   3:11:26  82 Team H&R Block
64143.02 Justin MAUCH (31 - Cat1)   San Francisco, CA3:11:26 219434  190 Kelly Benefit Strategies/LSV
65143.55 Matt LYONS (32 - Cat1)   Denver, CO3:11:30 293046  218 D3Devo p/b Airgas
66144.08 Bryan DUKE (33 - Cat1)   Salinas, CA3:11:30 287487  212 Bear Development Team
67144.61 Bailey V MCKNIGHT   3:11:30 432686  74 Trek Red Truck p/b Mosaic Home
68145.14 Joe D WATERS (34 - Cat1)   Ogden, UT3:11:30 267821  115 Canyon Bicycles- Shimano
69145.67 Griffin EASTER (35 - Cat1)   Upland, CA3:11:30 282590  217 D3Devo p/b Airgas
70146.20 Kit RECCA (36 - Cat1)   Golden, CO3:11:30 252699  134 Horizon Organic/Panache
71146.73 Stephen BEDFORD (37 - Cat1)   Portland, OR3:11:30 305665  231 0
72147.26 Jared GILYARD (38 - Cat1)   Cedar Hills, UT3:11:30 226665  245 Landis/Trek
73147.79 Yannick ECKMANN (39 - Cat1)   Boulder, CO3:11:30 254024  35 California Giant/Specialized
74148.32 Ariel HERRMANN (40 - Cat1)   San Francisco, CA3:11:30 163046  199 Marc Pro - Strava
75148.85 Connor MCCUTCHEON (41 - Cat1)   Bigbearlake, CA3:11:30 279388  184 Get Crackin
76149.38 Kirk CARLSEN (42 - Cat1)   Orinda, CA3:11:30 138681  15 BISSELL Pro Cycling
77149.91 Barry WICKS (43 - Cat1)   Corvallis, OR3:11:30 134223  242 Kona Factory Team
78150.44 Kurt WOLFGANG (44 - Cat1)   San Francisco, CA3:11:30 266467  116 Canyon Bicycles- Shimano
79150.97 Ian CRANE (45 - Cat1)   Seattle, WA3:11:30 184284  61 Hagens Berman Cycling
80151.50 Sergio HERNANDEZ (46 - Cat1)   San Pedro, CA3:11:30 201874  193 Predator Carbon Repair
81152.03 Thomas JONDALL (47 - Cat1)   Tucson Az3:11:30 243091  246 Landis/Trek
82152.56 Heath BLACKGROVE (48 - Cat1)   Austin, TX3:11:30 366920  171 ELBOWZ RACING p/b Boneshaker
83153.09 Conor MULLERVY (49 - Cat1)   Boulder, CO3:11:30 237726  194 Predator Carbon Repair
84153.62 Colin JOYCE (50 - Cat1)   Pocatello, ID3:11:30 292378  36 California Giant/Specialized
85154.15 Michael FRIEDMAN (21 - Pro)   Golden, CO3:11:30 135475  25 Optum p/b Kelly Benefit Strategies
86154.68 Gregory C DANIEL   Englewood, CO3:11:30 298625  43 Bontrager Cycling Team
87155.21 James STEMPER (22 - Pro)   Wauwatosa, WI3:11:30 230799  5hr Energy p/b Kenda
88155.74 Freddie RODRIGUEZ (23 - Pro)   Berkeley, CA3:11:30 30322  55 Jelly Belly p/b Kenda
89156.27 Robert SWEETING (24 - Pro)   Asheville, NC3:11:30 205722  5hr Energy p/b Kenda
90156.80 Gerardo Medina   Ruidoso, NM3:11:30 368364  207 Stage 17-Cylance
91157.33 David WILLIAMS (25 - Pro)   Grand Rapids, MI3:11:30 225765  5hr Energy p/b Kenda
92157.86 Clay MURFET (51 - Cat1)   Tasmania3:11:30 247737  125 Team SmartStop-Mountain Khakis
93158.39 Alex CANDELARIO (26 - Pro)   Bend, OR3:11:30 83014  23 Optum p/b Kelly Benefit Strategies
94158.92 Eric YOUNG (27 - Pro)   Boulder, CO3:11:30 279095  28 Optum p/b Kelly Benefit Strategies
95159.45 Tyler BRANDT (52 - Cat1)   Vallejo, CA3:11:30 210604  180 Get Crackin
96159.98 Scott Zwizanski (28 - Pro)   West Chester, PA3:11:30 131248  27 Optum p/b Kelly Benefit Strategies
97160.51 Ryan P EASTMAN (29 - Pro)   Santa Rosa, CA3:11:30 251921  44 Bontrager Cycling Team
98161.04 Nathan BROWN   Boulder, CO3:11:30 207512  232 0
99161.57 Patrick KOS   Breinigsville, PA3:11:30 407696  234 0
100162.10 Michael PINCUS (53 - Cat1)   Pearland, TX3:11:30 254929  146 Fire Fighters Cycling
101 Stuart WIGHT   3:11:30  67 Hagens Berman Cycling
102163.16 Barry MILLER (54 - Cat1)   Kutztown, PA3:11:30 197897  144 Fire Fighters Cycling
103163.69 Fabrizio VON NACHER (55 - Cat1)   Tustin, CA3:11:30 394218  97 CashCall Mortgage
104164.22 Michael WEICHT (56 - Cat1)   Tustin, CA3:11:30 377305  98 CashCall Mortgage
105164.75 David KESSLER (57 - Cat1)   Boulder, CO3:11:30 249191  154 Team Rio Grande Cycling
106165.28 Kennett PETERSON   Boulder, CO3:11:30 256803  145 Fire Fighters Cycling
107165.81 Steve FISHER (58 - Cat1)   Seattle, WA3:11:30 204225  62 Hagens Berman Cycling
108 Eric MARCOTTE   3:11:30  174 ELBOWZ RACING p/b Boneshaker
109166.87 Bobby LEA (30 - Pro)   Mertztown, PA3:11:30 65819  124 Team SmartStop-Mountain Khakis
110 Rene CORELLA BRAUN   3:11:30  203 Stage 17-Cylance
111167.93 Ty MAGNER (31 - Pro)   Griffin, GA3:11:30 222180  165 Hincapie Sportswear
112168.46 Gabriel BACA (59 - Cat1)   Chihuahua3:11:42 331782  202 Stage 17-Cylance
113168.99 Brian MCCULLOCH (60 - Cat1)   Yucaipa, CA3:12:01 169774  95 CashCall Mortgage
114169.52 Michael OLHEISER (61 - Cat1)   Huntsville, AL3:12:06 133375  93 CashCall Mortgage
115 Cory T WALLACE   3:12:14  243 Kona Factory Team
116170.58 Brad CLIFFORD   3:12:14 407364  72 Trek Red Truck p/b Mosaic Home
117171.11 Silvan DILLIER   3:12:14 405289  101 BMC Development Team
118171.64 Benjamin ZAWACKI (32 - Pro)   Greenville, SC3:12:14 144633  168 Hincapie Sportswear
119172.17 Ian BALDWIN (62 - Cat1)   Bellingham, WA3:12:14 282722  248 LWV/Hagens Berman/Society Cons
120172.70 Mat STEPHENS (63 - Cat1)   Dallas, TX3:12:14 178970  178 ELBOWZ RACING p/b Boneshaker
121173.23 Cody CANNING   3:12:14 433820  71 Trek Red Truck p/b Mosaic Home
122173.76 Emile F DE ROSNAY   3:12:14 402669  225 Russ Hays Accent Inns p/b PCC
123174.29 Shane HAGA (64 - Cat1)   Colorado Springs, CO3:12:36 249581  143 Fire Fighters Cycling
124174.82 Tyler M RIEDESEL (65 - Cat1)   Salt Lake City, UT3:12:36 264518  113 Canyon Bicycles- Shimano
125175.35 Isaac HOWE (33 - Pro)   Winooski, VT3:12:36 201456  123 Team SmartStop-Mountain Khakis
126175.88 Cory Greenberg (66 - Cat1)   Simi Valley, CA3:12:36 243988  182 Get Crackin
127176.41 Kevin GOTTLIEB (67 - Cat1)   San Francisco, CA3:12:36 226379  189 Kelly Benefit Strategies/LSV
128176.94 Chris UBERTI (34 - Pro)   Greenville, SC3:12:36 238311  127 Team SmartStop-Mountain Khakis
129 Michael VAN DEN HAM   3:12:36  227 Russ Hays Accent Inns p/b PCC
130178.00 Chris BARTON (68 - Cat1)   Camarillo, CA3:12:36 185877  91 CashCall Mortgage
131178.53 Devan DUNN (69 - Cat1)   Newport Beach, CA3:12:36 287721  92 CashCall Mortgage
132179.06 Julio MOLLINEDO (70 - Cat1)   Los Angeles, CA3:12:36 313236  191 Predator Carbon Repair
133179.59 Ricardo VAN DER VELDE (35 - Pro)   San Marcos, CA3:12:36 394632  58 Jelly Belly p/b Kenda
134180.12 Chris GRUBER   Woodbury, NJ3:12:36 187913  215 Champion system pb Stan's
135180.65 Frank PIPP (36 - Pro)   Longmont, CO3:12:36 164362  17 BISSELL Pro Cycling
136181.18 Kyle BUCKOSKY   3:12:36 402693  81 Team H&R Block
137 Ryan ANDERSON   3:12:36  24 Optum p/b Kelly Benefit Strategies
138182.24 Carl HOEFER (71 - Cat1)   Tigard, OR3:12:36 113787  230 Team Oregon p/b Laurelwood
139182.77 Arnaud GRAND   3:12:36 417820  103 BMC Development Team
140183.30 Patrick MCCARTY   Portland, OR3:12:36 89044  16 BISSELL Pro Cycling
141183.83 Michael TORCKLER (72 - Cat1)   Santa Rosa, CA3:12:36 399728  18 BISSELL Pro Cycling
142184.36 Trevor CONNOR (73 - Cat1)   Boulder, CO3:12:36 160019  153 Team Rio Grande Cycling
143184.89 Chris STASTNY (74 - Cat1)   Vacaville, CA3:12:36 249743  65 Hagens Berman Cycling
144185.42 Ryan MILLER (75 - Cat1)   Corvallis, OR3:12:36 246445  64 Hagens Berman Cycling
145185.95 Ben CHADDOCK   Walla Walla, WA3:13:17 261002  121 Team SmartStop-Mountain Khakis
146186.48 Cody O'REILLY (76 - Cat1)   Santa Barbara, CA3:13:17 141922  196 Predator Carbon Repair
147187.01 Michael SHEEHAN (77 - Cat1)   Austin, TX3:13:20 323876  177 ELBOWZ RACING p/b Boneshaker
148187.54 Kris DAHL   Winston Salem, NC3:13:20 402703  83 Team H&R Block
149188.07 Willy J ZELLMER (78 - Cat1)   Missoula, MT3:13:20 225407  222 Gateway Harley Davidson/Trek
150188.60 Colt PETERSON (79 - Cat1)   Boulder, CO3:13:20 287772  155 Team Rio Grande Cycling
151189.13 Nick BAX (80 - Cat1)   Boulder, CO3:13:20 193457  152 Team Rio Grande Cycling
152189.66 George CYRUS (81 - Cat1)   Queen Creek, AZ3:13:35 324344  244 Landis/Trek
153190.19 Brian RACH (82 - Cat1)   Chilton, WI3:13:40 257820  237 LAPT - Wilde Subaru
154190.72 Max KORUS (83 - Cat1)   Woodside, CA3:13:49 290610  205 Astellas Oncology
155191.25 Timothy RUGG (84 - Cat1)   Harrisonburg, VA3:13:59 280764  238 0
156191.78 Andy BAKER (37 - Pro)   Easley, SC3:14:11 193830  161 Hincapie Sportswear
157192.31 Morgan RYAN (85 - Cat1)   Ventura, CA3:14:29 177959  186 Get Crackin
158192.84 Camilo ZAMBRANO (86 - Cat1)   Boulder, CO3:14:29 357730  158 Team Rio Grande Cycling
159 Ignazio MOSER   3:14:29  104 BMC Development Team
160193.90 Tim ROE   Austin, TX3:14:29 306180  107 BMC Development Team
161194.43 Hunter HUFFMAN (87 - Cat1)   Park City, UT3:14:29 338664  111 Canyon Bicycles- Shimano
162194.96 Jesse R REAMS   3:14:29 405549  75 Trek Red Truck p/b Mosaic Home
163 Sam P SAUTELLE   3:15:09  240 0
164196.02 Frank TRAVIESO (38 - Pro)   Athens, GA3:15:29 160295  126 Team SmartStop-Mountain Khakis
165196.55 Jeremy VENNELL (88 - Cat1)   Santarosa, CA3:15:48 304747  13 BISSELL Pro Cycling
166197.08 Dean HAAS (89 - Cat1)   Lakewood, CO3:16:06 271420  132 Horizon Organic/Panache
167197.61 Curtis WINSOR (39 - Pro)   Charlottesville, VA3:16:41 187500  128 Team SmartStop-Mountain Khakis
168198.14 Aaron SCHOOLER   3:17:38 397689  87 Team H&R Block
169198.67 Federico MARCHIORI   3:17:49 402694  85 Team H&R Block
170199.20 Paul WARNER (90 - Cat1)   Boise, ID3:18:25 349884  173 Bob's Bicycles
171199.73 Chase A PINKHAM (40 - Pro)   Salt Lake City, UT3:18:25 251593  236 Jamis-Hagens Berman
172200.26 Ian BURNETT (41 - Pro)   Durango, CO3:38:36 191725  51 Jelly Belly p/b Kenda
173200.79 Ian MOORE (91 - Cat1)   San Luis Obispo, CA4:05:06 297697  208 Stage 17-Cylance
174201.32 Ben BERTIGER (92 - Cat1)   Altadena, CA4:10:06 213564  201 Stage 17-Cylance
DNS Curtis DEARDEN     226 Russ Hays Accent Inns p/b PCC
DNF Mac CASSIN (Cat1)   Denver, CO 287030  131 Horizon Organic/Panache
DNF Alder MARTZ (Pro)   Charlotte Nc 202082  166 Hincapie Sportswear
DNF Jos LEROUX   Temecula, CA 367190  183 Get Crackin
DNF Daniel HARM (Cat1)   Seattle 209022  204 Stage 17-Cylance
DNF Eric A LOSAK (Cat1)   San Clemente 175239  235 Clif Bar Cycling
DNF Eric R HILL (Cat1)   Hartland, WI 334878  247 LAPT - Wilde Subaru
DNF Justin A ROSSI (Cat1)   Reno, NV 298550  249 Marc Pro - Strava

Men - Cat 1/2 - Masters - 40-99

 Place Points NameCity, StateTime USAC #BibTeam
1168.59 Matthew CARINIO (1 - Cat1)   San Luis Obispo, CA 6109  600 ArtsCyclery.com
2175.29 Brian CHOI (1 - Cat2)   Folsom, CA 52849  627 Stuzio
3181.99 Craig HAMILTON (2 - Cat2)   Portland, OR 75890  635 0
4188.69 Michael SAYERS (2 - Cat1)   Fair Oaks, CA 54591  625 Specialized Masters
5195.39 Ryan MCKEAN (3 - Cat1)   Bend 114327  613 Hutch's/Bend Dental
6202.09 Jason BOYNTON (4 - Cat1)   Yuba City, CA 4526  610 Folsom Bike/Raley's/VW
7208.79 Robert PASCO (5 - Cat1)   Belmont, CA 136970  624 SAFEWAY/PureRED
8215.49 Paul BOURCIER (6 - Cat1)   Eugene, OR 4391  632 0
9222.19 Andrew SARGENT (7 - Cat1)   Bend, OR 31309  608 Evolution Racing Team
10228.89 Michael LARSEN (3 - Cat2)   Bend, OR 102138  638 Bend Broadband/Web Cyclery Racing
11235.59 Chris A DEMARCHI (8 - Cat1)   Chino, CA 9156  619 MRI Endurance Elite Masters
13248.99 Paul BEARD    407673  626 SpeedTheory
14255.69 Tim P BUTLER   Portland, OR 211505  609 Evolution Racing/River City
15262.39 Eric MARTIN (4 - Cat2)   Bend, OR 22656  639 Bend Broadband/Web Cyclery Racing
16269.09 Matt SEELEY (5 - Cat2)   Polson, MT 110913  617 Montana Velo
17275.79 Mark SHERMAN    407773  616 Mighty Musette
18282.49 Mike J HENRY (6 - Cat2)   Damascus, OR 15862  636 Evolution Racing Team
19289.19 Maikey LOPERA (7 - Cat2)   Eugene, OR 195121  614 Life Cycle Racing Team
20295.89 Travis DIXON (8 - Cat2)   Albuquerque, NM 74064  633 High Desert Masters
21302.59 Patrick D CARO (9 - Cat1)   Claremont 88582  611 Full Circle
22309.29 Brad HALSTEAD (9 - Cat2)   Olympia, WA 14767  622 Olympia Orthopaedic Associates
23315.99 Kyle WUEPPER (10 - Cat2)   Bend, OR 39076  643 0
24322.69 Mike SUTTER (11 - Cat2)   Boulder, CO 77394  604 Boulder Orthopedics
25329.39 Roger J MARTIN (12 - Cat2)   Danville, CA 276924  606 Cushman & Wakefield Racing
26336.09 Randall W COXWORTH (10 - Cat1)   San Diego, CA 48052  618 MRI Endurance Elite Masters
27342.79 Kevin KLEIN (11 - Cat1)   Menlo Park, CA 47388  637 0
28349.49 Mattew S SLATER (13 - Cat2)   Portland, OR 243886  607 Evolution / River City Bicycle
29356.19 Edward MICEK (12 - Cat1)   Bend, OR 40989  640 0
30362.89 Brian SEGUIN (14 - Cat2)   Bend, OR 43496  641 Bend Broadband/Web Cyclery Racing
31369.59 Patrick S MCCLURG (15 - Cat2)   Citrus Heights, CA 48984  628 Stuzio.com
32376.29 Greg CANFIELD (16 - Cat2)   Bend, OR 147444  612 Hutch's Bend
33382.99 Michael JOHNSON (13 - Cat1)   Mission Viejo, CA 110745  621 MRI Endurance.com Elite Master
34389.69 Brian COOK (14 - Cat1)   Santa Barbara, CA 206040  620 MRI Endurance p/b Monster Medi
35396.39 Craig NUNES (15 - Cat1)   San Luis Obispo, CA 178453  602 ArtsCyclery.com
36403.09 Patrick R BRIGGS (16 - Cat1)   Oakland, CA 4838  623 PrimeTime Cycling Team
37409.79 Chris HAMILTON (17 - Cat1)   Portland, OR 42485  634 0
38416.49 Chris W BECKER (17 - Cat2)   Orinda, CA 287692  603 Barclays Racing
39423.19 Nate A ERICKSON (18 - Cat2)   San Luis Obispo, CA 63004  601 ArtsCyclery.com
40429.89 Greg BERLIND (19 - Cat2)   Denver, CO 48571  631 Boulder Orthopedics
41436.59 Jim J GENTES (20 - Cat2)   Soquel, CA 13042  605 Buy-Cell.com
42443.29 Doug SMITH (21 - Cat2)   Bend, OR 302682  642 Bend Broadband/Web Cyclery Racing
43449.99 Thomas E CODY (22 - Cat2)   Portland, OR 7244  630 Veloce Racing
DNF Eric E SHEAGLEY (Cat2)   Portland, ORSmith and Nephew 145237  629 Veloce p.b

Men - Cat 2

 Place Points NameCity, StateTime USAC #BibTeam
1168.55 Evan A SIROKY   Portland, OR2:48:55 309756  567 Team Oregon p/b Laurelwood
2171.27 Tyler NABOURS   Boulder, CO2:48:55 294028  578 Pedal p/b Cannondale Development
3173.99 Kaler MARSHALL   Walla Walla, WA2:48:55 321012  506 Audi p/b Kryki Sports
4176.71 Max O'NEAL   Seattle, WA2:48:55 229273  528 HSP
5179.43 Logan L PHIPPEN   Ogden, UT2:48:55 265398  511 Canyon Bicycles- Shimano
6182.15 Nick NEWCOMB   Nicasio, CA2:49:02 258299  560 Team Mikes Bikes pb Incase
7184.87 Riley MAJEUNE-FAGAN   Golden Co2:49:22 250791  535 Metromint Cycling
8187.59 Trevor SPAHR   Portland, OR2:49:33 297918  527 HPChiro-RPM Mortgage Cycling
9190.31 Andrew M HEMESATH   Colorado Springs , CO2:49:33 254826  545 Primal Wear-McDonald Audi
10193.03 Dwayne FARR   Vancouver2:49:33 365467  554 Soraz Racing p/b CAPA
11195.75 Christofer H KEELING   Charlottesville, VA2:49:33 316758  532 Kelly Benefit Strategies/LSV
12198.47 Curtis J WHITE   Delanson, NY2:49:33 234696  523 Hot Tubes
13201.19 Zach D HESKETT   Kalispell2:49:33 291411  576 0
14203.91 Ben THOMPSON   Bend, OR2:49:38 189912  587 0
15206.63 John W NOONAN   Evergreen, CO2:49:38 230716  546 Primal/ McDonald Audi
16209.35 Nate M TAGGATZ   Fort Collins, CO2:49:38 374170  516 First City Cycling Team
17212.07 Dillon CALDWELL   Bend, OR2:49:49 335474  564 Team Oregon p/b Laurelwood
18214.79 Jeffrey GAECKLE   Olympia, WA2:49:49 12621  540 Olympia Orthopaedic Associates
19217.51 Paul VACCARI   Rancho Cucamonga, CA2:49:49 129753  551 rock sports racing
20220.23 Scott GRAY   Bend, OR2:49:49 245167  590 Team Oregon p/b Laurelwood
21222.95 Josh DAPICE   Berkeley, CA2:50:10 141844  503 Audi
22225.67 Tavish R TAYLOR   Port Angeles2:50:24 198253  586 Audi p/b Kryki Sports
23228.39 Leland GILMORE   Portland, OR2:50:24 129254  547 Rapha River City Bicycles
24231.11 Alexander KUSZTYK   Aliso Viejo, CA2:50:24 257227  537 MRI Endurance Elite U23
25233.83 Chad W YOUNG   Newmarket, NH2:50:35 318898  524 Hot Tubes Development Cycling
26236.55 Scot FERGUSON   Reno, NV2:50:43 195008  559 Team Cliffbar Cycling
27239.27 Jared J BREWER   Taylorsville2:50:43 370140  515 FFKR Architects Racing
28241.99 Colton R HLAVINKA   Boise, ID2:50:43 233016  531 Joyride-Cycles.com
29244.71 David CHIPCHASE   Dupont, WA2:50:43 220071  539 Olympia Orthopaedic Associates
30247.43 Cameron R CLARK   Bend, OR2:50:43 394106  530 Hutch's/Bend Dental
31250.15 Elliot HAWKES   Stanford, CA2:50:47 275956  534 Metromint Cycling
32252.87 Robert J HARGROVE   2:51:09 415124  536 Mighty Cycling
33255.59 Nigel KINNEY   2:51:13 297103  594 Musette Caf
34258.31 Matthew ABDALAH   Los Altos, CA2:51:23 224627  556 Squadra SF
35261.03 Brad NEAGOS   Denver , CO2:51:23 372580  538 Natural Grocers
36263.75 Garrett S MCALLISTER   Bend, OR2:51:27 278438  512 Canyon Racing Team
37266.47 Michael PALMER   Portland, OR2:51:27 277993  579 0
38269.19 Geoffrey PARSLOW   2:51:39 405750  593 0
39271.91 Nathan M SEAFORD   Glendora, CA2:51:39 354044  584 MRI Endurance Elite U23
40274.63 Jonathan BRAUNSTEIN   2:51:47 405857  569 Todds Racing
41277.35 Chris CAIN   Monterey, CA2:51:54 339008  592 0
42280.07 Isaac SPARLING   San Francisco, CA2:51:54 331080  557 SquadraSF
43282.79 Matt SHACKLEY   Las Vegas, NV2:51:54 245236  501 Allegiant Cycling
44285.51 Brent CARLSON   Seattle, WA2:52:10 223236  505 Audi p/b Kryki Sports
45288.23 Brandon BORTH   Lockeford, CA2:52:10 235761  510 Bicycles Plus/Sierra Nevada
46290.95 Normand RICHARD   2:52:10 404970  581 Escape Velocity
47293.67 Tim SMITH   Olympia, WA2:52:10 241621  541 Olympia Orthopaedic Associates
48296.39 Chris B LUNDBERG   Denver, CO2:52:44 306843  544 Primal p/b McDonald Audi
49299.11 Brent L EMOFF   Oakland, CA2:53:00 259427  552 Sizzle Pie Cycling
50 Davis K HAND   2:53:04  555 Soraz Racing p/b CAPA
51304.55 Greg TYLER   Portland, OR2:53:14 213495  507 Audi p/b Kryki Sports
52307.27 Jake PERRIN   Bend, OR2:53:37 351374  529 Hutch's / Bend Dental
53309.99 Nick SCHAFFNER   Truckee, CA2:54:06 187296  533 Marc Pro - Strava
54312.71 Mackenzie A GARVIN   2:54:18 408071  514 cyclemiesters bow cycle
55315.43 Mark FRANKS   North Bend, WA2:54:18 183911  502 Apex Racing Team
56318.15 Kevin R TEMPEL   Fort Collins, CO2:54:18 246693  517 First City Cycling Team
57320.87 David C BERRY   Huntington Beach, CA2:54:18 298247  519 Get Crackin'
58323.59 Timothy J LANG   Portland, OR2:54:29 257848  526 HPChiro-RPM Mortgage
59326.31 Josh LAGRANGE   Bend, OR2:55:30 201330  568 Therapeutic Associates of Bend
60329.03 Shane SCOGGIN   Reston, VA2:55:30 292324  525 HPC/List
61331.75 Nathaniel PITTS   Seattle, WA2:55:59 304664  550 Recycled Cycles Racing
62334.47 Aaron J SNOVEL   Sacramento, CA2:56:17 272559  518 Folsom Bike/VW/Raley's
63337.19 Matt MIKUL   Sunnyvale, CA2:56:22 271933  549 Recycled Cycles Racing
64339.91 Sam CERRUTI   Watsonville, CA2:56:31 233607  508 Bear Development Team
65342.63 Eric GUSHURST   Portland2:56:35 395088  566 Team Oregon p/b Laurelwood
66345.35 Adam ARTNER   Central Point, OR2:56:35 331042  562 Team Oregon p/b Laurelwood
67348.07 Kevin HANSEN   Lake Forest Park, WA2:56:55 221895  548 Ravenna Capital Managment
68350.79 Michael SIMECEK   Kirkland, WA2:57:00 367978  504 Audi Cycling
69353.51 Christopher DUBOIS   Portland, OR2:57:00 318474  565 Team Oregon p/b Laurelwood
70356.23 Bryan GALLANT   2:57:52 379025  571 Triple Crown Racing
71358.95 John B HARTNETT   Portland, OR2:58:08 241125  553 Soraz Racing
72361.67 Lonny KNABE   Portland, OR2:58:56 286309  561 Team Novo Nordisk
73364.39 Robert BURNETT   Golden, CO2:59:56 251832  572 0
74367.11 Michael VALDEZ   Orange, CA3:00:03 318588  588 0
75369.83 Andrew BOONE   Bend, OR3:01:00 222604  563 Team Oregon p/b Laurelwood
76372.55 Brian H DALTON   3:01:07 379028  570 Triple Crown Racing
77375.27 Sam ROSENBERG   Eugene, OR3:01:17 278565  582 Hutch's -Clocom-CoMotion
78377.99 Andrew SJOGREN   Riverside, CA3:02:22 271744  585 0
79380.71 Trevor C GOMES   Lodi, CA3:02:22 321964  558 Team Bicycles Plus Sierra Neva
80383.43 Lucas ELMS   Colorado Springs, CO3:03:09 311078  542 pedal p/b Cannondale
81386.15 Taylor JUNG   Littleton, CO3:03:09 241461  543 Pedal p/b Cannondale Development Team
82388.87 Eric M COCKRELL   Seattle, WA3:05:42 311819  521 Herriott Sports Performance
83391.59 Thorsten ASKERVOLD   Lake Stevens, WA3:05:42 299287  520 Herriott Sports Performance
84394.31 Rob EVANS   Scotts Valley, CA3:10:02 72893  573 Bear Development Team
85397.03 Dillon CLAPP   Stevenson Ranch, CA3:13:40 6973  591 Clif Bar
86399.75 Matthew ROSSMAN   Salt Lake City, UT3:15:02 195297  583 0
87 David V GERTH   3:16:34  574 Triple Crown Racing
88405.19 Brian HITCHCOCK   Seattle, WA3:16:34 284741  577 HSP
89407.91 Theodore T SCHWARTZ   Seattle3:16:34 330330  522 Herriott Sports Performance

Men - Cat 3

 Place Points NameCity, StateTime USAC #BibTeam
1255.05 Jonathan CHRISTENSEN   Clements, CACAT 3 250315  886 Bear Development Team
2260.35 Adam O'CAMB   Orinda CaCAT 3 297136  876 0
3265.65 Jeffrey Buscheck   Pleasanton, CACAT 3 283386  871 Fremont Bank Cycling Team
4270.95 Jason J BROOKS   CAT 3 379510  868 Triple Crown Racing
5276.25 Lance HAIDET   Bend, ORCAT 3 330472  809 Bear Development Team
6281.55 Matt MCWHIRTER   Scottsdale , AZCAT 3 71063  887 Fleming Wealth Strategies
7286.85 Taylor M CODY   Berkeley, CACAT 3 313686  838 Metromint Cycling
8292.15 Michael MILLER   Menlo Park, CACAT 3 220857  875 0
9297.45 Curt P MILLS   Gold River, CACAT 3 299412  822 Data Driven Athlete Racing
10302.75 Roger LEE   Daly City, CACAT 3 198375  872 0
11308.05 Rob ANGELO   Bend, ORCAT 3 345532  869 0
12313.35 Ryan MALM   Sacramento, CACAT 3 296229  824 Davis Bike Club Race Team
13318.65 Josh TANNER   Seattle, WACAT 3 218858  877 0
14323.95 Ryan NESS   Bend, ORCAT 3 115665  865 Therapeutic Assoc Bend/Pine Mt
15329.25 Brook GARDNER   Bend, ORCAT 3 330816  801 Aeolus Endurance Sport/Cable H
16334.55 Steve WEILER   Fort Collins, COCAT 3 303374  827 First City Cycling Team
17339.85 Trevor ELLSWORTH   Reno, NVCAT 3 348354  808 Bear Development Team
18345.15 Kenny J MCDANIEL   Boise, IDCAT 3 319190  874 0
19350.45 Doug LAPLACA   Bend, ORCAT 3 302570  867 Therapeutics Associates-Bend
20355.75 Cliff ESLINGER   Bend, ORCAT 3 409838  859 StudioNine30
21361.05 Tyler TANGEN   Bonney Lake, WACAT 3 353044  847 Rad Racing NW
22366.35 Addison FULLER   Las Vegas, NVCAT 3 304039  888 Allegiant Airlines
23371.65 Jason W BENFORD   San Francisco, CACAT 3 198025  829 GigaOm-ARO Pistachios
24376.95 Andrew R SHIMIZU   El Dorado Hills, CACAT 3 366663  823 Data Driven Athlete Racing
25382.25 Rocky FLETCHER   Sacramento , CACAT 3 324460  819 Data Driven Athlete
26387.55 Jackson PICKELL   Port CoquitlamCAT 3 403497  837 Local Ride Racing
27392.85 Casey FALLON   Sacramento, CACAT 3 331532  821 Data Driven Athlete Racing
28398.15 Kyle BERLIND   Denver, COCAT 3 367168  870 0
29403.45 Marcus BIANCUCCI   Bend, ORCAT 3 302027  862 TAI/Pine Mt. Sports
30408.75 Jeremy L TUFTS   Bend, ORCAT 3 261050  861 StudioNINE30-Toyota of Bend
31414.05 Jeremy AYERS   Rancho Cucamonga, CACAT 3 318904  850 Rock Sports Racing
32419.35 Ryan O'KEEFE   Las Vegas, NVCAT 3 293638  804 Allegiant Cycling
33424.65 Ayden YOUNG   Olympia, WACAT 3 361728  848 Rad Racing NW
34429.95 Dave PANKRATZ   Santa Maria, CACAT 3 336206  844 One Way Cycling
35435.25 George PINNEY   BendCAT 3 411203  885 Therapeutic Assosiates
36440.55 Stanley K BJORLING   Bend, ORCAT 3 258301  835 Hutch's/ Bend Dental
37445.85 Vitaly GASHPAR   San Francisco, CACAT 3 273905  856 Squadra SF
38451.15 Benjamin PETERSON   Seattle, WACAT 3 354994  828 First Strike Velo/Slalom Consu
39456.45 Edward C DELISLE   Portland OrCAT 3 379373  855 Soraz Racing p/b CAPA
40461.75 Eliot LOGAN   Palo Alto, CACAT 3 182819  840 Metromint Cycling
41467.05 Eric S ZUMWALT   Santa Rosa, CACAT 3 53375  846 R4R Make A Wish
42472.35 Stephen JAYANATHAN   Oakland, CACAT 3 220868  839 Metromint Cycling
43477.65 Christopher A CARTER   Fountain Hills, AZCAT 3 306854  833 Herriott Sports Performance
44482.95 Eric L MATHIS   College Place, WACAT 3 305771  873 0
45488.25 Alex LUGOSCH   Sanfrancisco, CACAT 3 281513  857 Squadra SF
46493.55 Forrest L MURPHY   Seattle, WACAT 3 278903  815 CicloSpeed
47498.85 Chad RICHMOND   Bothell, WACAT 3 266765  830 Hagens Berman
48504.15 Richard G LORENZ   PortlandCAT 3 410595  803 Aeolus Endurance Sport/Cable H
49509.45 Cristian FUENTES   Portland, ORCAT 3 362274  817 Crank
50514.75 Tommy LUCAS   Santa Rosa, CACAT 3 285713  807 Bear Development
51520.05 Tyler RUPE   Bend, ORCAT 3 30878  836 Hutch's/Bend Dental
52525.35 Seth TAYLOR   Bend, ORCAT 3 243830  866 Therapeutic Associates
53530.65 Katherine REINHART   Southlake TxCAT 3 286351  889 Gregg's Trek
54535.95 Travis CALDWELL   Boulder, COCAT 3 336396  854 Sonic Boom Racing pb Lucky Pie
55541.25 Colin DUNLAP   Bend, ORCAT 3 298519  834 Hutches Hd/ Bend Dental
56546.55 Robert MCDANIEL   Seattle, WACAT 3 284692  849 Recycled Cycles
57551.85 Eric E BRICKLER   Folsom, CACAT 3 284883  820 Data Driven Athlete Racing
58557.15 Wes OCHITWA   CAT 3 405889  892 Musette Coffee
59562.45 Corey FISH   Bozeman, MTCAT 3 324678  864 Team Rockford/Clif

Men - Cat 3/4 - Masters - 40-99

 Place Points NameCity, StateTime USAC #BibTeam
1261.11 Eric BALOG (1 - Cat3)   Wilson, WY3:07:25 332838  718 Hoback Sports / JHAF
2269.23 Hanns DETLEFSEN   Concord, CA3:08:05 208769  709 Cushman and Wakefield Racing
3277.35 Bob DELP (2 - Cat3)   Folsom, CA3:08:05 9138  715 Folsom Bike/VW/Raley's
4285.47 Rick B BENSON (3 - Cat3)   Seattle, WA3:08:24 3371  713 Fischer Plumbing/Jet City Velo
5293.59 Scot A MCLEAN (4 - Cat3)   Sananselmo, CA3:08:24 304846  728 ThirstyBear Cycling
6301.71 Todd SAHL (5 - Cat3)   Seattle, WA3:08:24 105471  724 SCCA/Starbucks Cycling
7309.83 Jeffrey N SPAULDING (6 - Cat3)   San Luis Obispo, CA3:08:50 223594  737 0
8317.95 Patrick HAMPTON (7 - Cat3)   Cambria, CA3:08:56 218958  700 ArtsCyclery.com
9326.07 Andy HOLMWOOD   3:09:24 383047  711 Cyclemeisters/Bow Cycle
10334.19 Ryan L ALLEN (1 - Cat4)   Santa Maria, CA3:09:38 337066  730 0
11342.31 Mickey MCDONALD (2 - Cat4)   Bend, OR3:09:38 23402  733 0
12350.43 Lane H SEELEY (8 - Cat3)   Edmonds, WA3:09:38 291895  701 Audi
13358.55 Kevin MILLER (9 - Cat3)   Granite Bay, CA3:09:52 307115  729 Victory Velo Racing
14366.67 Bob EHARDT (10 - Cat3)   Orangevale, CA3:10:03 286992  716 Folsom Bike/VW/Raley's
15374.79 Ronald LAVERTY   Medford, OR3:10:05 411250  710 CYCLE SPORT
16 Tony ROUTLEY   3:10:14  735 0
17391.03 Michael P GIRARD (11 - Cat3)   Portland, OR3:10:26 394894  712 Evolution/River City Bicycles
18399.15 Matt KLINE   Grants Pass, OR3:10:30 411242  739 0
19407.27 Markham CONNOLLY (12 - Cat3)   Berkeley, CA3:10:30 208359  732 0
20415.39 Rich MULL (13 - Cat3)   Malibu, CA3:10:41 362385  723 Michelson Ultra LaGreange
21423.51 Shane DUNLEAVY (14 - Cat3)   Park City, UT3:10:45 253994  725 Ski Utah - Marketstar
22431.63 Lee CRANE (3 - Cat4)   Carlsbad3:10:50 384483  727 Swami's Cycling
23439.75 Alejandro MITTELHOLZER   Eugene, OR3:11:13 410634  741 Life Cycle Racing Team
24447.87 Stefan J GIACHINO (15 - Cat3)   Fair Oaks, CA3:11:13 242481  717 Folsom Bike/VW/Raley's
25 Mark WILLIAMS   3:11:16  738 0
26464.11 Todd BERGER (16 - Cat3)   Bend, OR3:11:24 357827  705 BMC Total Care Race Team
27472.23 John H CRAFT (17 - Cat3)   Bend, OR3:11:54 210361  708 BMCTC Racing Team
28480.35 Claire MORGAN   Gold River, CA3:12:13 335402  740 Folsom Bike/Cerrelo
29488.47 Scott GOLDSTEIN (18 - Cat3)   Eugene, OR3:12:41 73302  721 Michelob Ultra
30496.59 Murat A OZGUR (19 - Cat3)   Los Altos, CA3:13:14 41335  726 Squadra SF
31504.71 David BJORK (20 - Cat3)   Bend, OR3:14:22 47844  719 Hutch's/Bend Dental
32512.83 Curtis SCHLOSSBERGER   3:14:44 40291  720 IRC p/b Robert Cameron Law
33520.95 Sean HAIDET (21 - Cat3)   Bend, OR3:15:13 153943  703 Bend Memorial Clinic TotalCare
34529.07 Eric O SCHUSTERMAN (22 - Cat3)   Bend, OR3:15:13 77589  707 BMC Total Care Racing
35537.19 Matthew LASALA (23 - Cat3)   Bend, OR3:15:31 226552  706 BMC Total Care Racing
36545.31 Tim MARCOTTE (24 - Cat3)   Eugene, OR3:15:31 49761  722 Michelob Ultra
37553.43 John OLSEN (4 - Cat4)   Pismo Beach, CA3:18:32 155869  734 0
38561.55 Ryan ALTMAN (25 - Cat3)   Bend, OR3:36:34 330514  731 0
39569.67 Greg LUNIEWSKI (26 - Cat3)   Seattle, WA3:46:49 207153  704 Bikesale.com
DNF Mark E STATEMA (Cat4)   Spokane, WA 303646  702 Baddlands Racing

Men - Cat 4

 Place Points NameCity, StateTime USAC #BibTeam
1445.11 Matt BRIGGS   Bend OrCAT 4 407666  879 0
2449.81 Killian BAILEY   Vancouver, WACAT 4 355614  810 Beaverton Bicycle Club
3454.51 Michael FINLEY   Bellingham, WACAT 4 357792  881 0
4459.21 Calon N RUSSELL   Portland, ORCAT 4 398375  814 Bridgetown Velo
4459.21 Joshua S RENICK   New York, NYNYC 158023  816 Columbia University
5463.91 Wilson TRAN   CAT 4 394323  825 Escape Velocity
6468.61 Daniel C CORRAL   Berkeley, CACAT 4 340386  842 MetroMint Racing
7473.31 John SNAPP   Pomona, CACAT 4 296610  852 SC Velo
8478.01 Andi GREISEL   Portland, ORCAT 4 398271  813 Bridgetown Velo
9482.71 Andy G MARTIN   Bend, ORCAT 4 170956  883 0
10487.41 Noah PUTT   Park City, UTCAT 4 317194  884 FFKR Architects Racing
11492.11 Mark ROGERS   Woodinville, WACAT 4 269636  832 Hagens Berman - Society
12496.81 Sean E MCGRAW   SeattleCAT 4 385661  831 Hagens Berman
13501.51 Elijah RUGGIERO   Rancho Cucamonga, CACAT 4 377154  851 Rock Sports Racing
14506.21 Sky MCKINLEY   Mckinleyville, CACAT 4 358181  800 Adventure's Edge
15510.91 David KRUMWIEDE   Berkeley, CACAT 4 367584  841 Metromint Cycling
16515.61 Matt MALLET   Corvallis, ORCAT 4 227664  882 0
17520.31 Jeff WAYLAND   El Cerrito, CACAT 4 332298  843 MetroMint Racing
18525.01 Jeremy DOSSETTER   San Francisco, CACAT 4 340854  858 SquadraSF
19529.71 Joshua Renick   New York, NY 158023  816 Columbia University-NYC
20534.41 Brett STEWART   Walnut Creek, CACAT 4 259315  818 Cushman & Wakefield Racing
21539.11 Jon BURRILL   Central Point, ORCAT 4 411261  891 Sappo Hill Soapworks
22543.81 Andrew J DANIELS   DenverCAT 4 400579  880 0
23548.51 Jorge KAUFMANN   Portland, ORCAT 4 396632  863 Team Oregon p/b Laurelwood Bre
24553.21 Brian FEDERMANN   Lompoc, CACAT 4 366955  845 OneWay cycling
25557.91 Jarren GARVIN   801-916-8027CAT 4 380014  826 FFKR Architects
26562.61 Zachary HILTON   Morgan Hill, CACAT 4 326874  853 SJBC

Women - Pro/Cat 1/2 - Nrc Stage

 Place Points NameCity, StateTime USAC #BibTeam
1135.46 Lauren M STEPHENS   Dallas, TX2:55:26 288678  338 UCI WPT: Team TIBCO/ To the Top*
2137.19 Kathryn DONOVAN   Oxnard, CA2:55:34 266674  306 NOW and Novartis for MS*
3138.92 Alison POWERS   Pinecliffe, CO2:56:17 98704  301 NOW and Novartis for MS*
4 Joanne M KIESANOWSKI   2:56:17  332 UCI WPT: Team TIBCO/ To the Top*
5142.38 Flavia OLIVEIRA (1 - Cat1)   Littleton, CO2:56:17 224767  366 DNA Cycling p/b Plan7
6144.11 Kristin MCGRATH (1 - Pro)   Boise, ID2:56:17 247577  321 Exergy TWENTY 16
7145.84 Claudia HAEUSLER   2:56:17 400516  333 UCI WPT: Team TIBCO/ To the Top*
8147.57 Krista DOEBEL-HICKOK (1 - Cat2)   Marina Del Rey, CA2:56:22 366011  335 UCI WPT: Team TIBCO/ To the Top*
9149.30 Andrea DVORAK (2 - Pro)   Crozet, VA2:56:28 190817  322 Exergy TWENTY 16
10151.03 Mara ABBOTT (3 - Pro)   Boulder, CO2:56:32 198735  324 Exergy TWENTY 16
11152.76 Jessica CERRA (2 - Cat2)   Encinitas, CA2:56:46 293983  438 BMC Total Care Racing
12154.49 Janel HOLCOMB (4 - Pro)   San Diego, CA2:56:46 255006  316 Optum p/b Kelly Benefits
13156.22 Jasmin GLAESSER   2:56:46 400540  334 Team TIBCO
14157.95 Lex ALBRECHT   2:56:46 380330  308 NOW and Novartis for MS
15159.68 Rhae SHAW   Seattle, WA2:56:46 405043  386 Vanderkitten
16161.41 Anna SANDERS   Phoenix, AZ2:56:46 279796  402 FCS|Zngine p/b Mr. Restore
17163.14 Katherine HALL (2 - Cat1)   Oakland, CA2:56:46 328844  373 Metromint Cycling Team
18164.87 Stephanie N GONZALEZ (3 - Cat2)   Wilmington, DE2:56:46 383312  417 0
19166.60 Anna CHRISTIANSEN (4 - Cat2)   Portland, OR2:56:54 353750  415 0
20168.33 Abigail MICKEY (5 - Cat2)   Aspen, CO2:57:18 326204  375 Metromint Cycling Team
21170.06 Gabrielle FORTIN   2:57:36 401597  354 Team Kenda p/b RACC
22 Kristine BRYNJOLFSON   2:57:36  413 Trek Red Truck Racing Team
23173.52 Laura BROWN   2:57:45 402642  343 Team COLAVITA-FINE COOKING
24175.25 Devon GORRY   Logan, UT2:57:45 210903  304 NOW and Novartis for MS
25176.98 Fabienne GERARD (3 - Cat1)   New York, NY2:57:45 281037  355 Team Kenda p/b RACC
26178.71 Robin FARINA   Smartsville, CA2:57:45 205968  305 NOW and Novartis for MS
27180.44 Jennifer WHALEN (6 - Cat2)   Los Angeles2:57:45 352592  378 Metromint Cycling Team
28182.17 Kate CHILCOTT   Argyle, TX2:57:45 347150  381 Vanderkitten
29183.90 Fiona STROUTS (7 - Cat2)   Menlo Park, CA2:57:45 338404  376 Metromint Cycling Team
30185.63 Olivia DILLON   Fairfax, CA2:57:45 232172  307 NOW and Novartis for MS
31187.36 Julie EMMERMAN (4 - Cat1)   Boulder, CO2:57:45 121552  408 Rally Sport Cycling Team
32189.09 Irena OSSOLA (8 - Cat2)   Santa Fe Nm2:57:45 392698  356 Team Kenda p/b RACC
33190.82 Liza RACHETTO   Los Altos, CA2:57:45 145511  384 Vanderkitten
34192.55 Megan GRAY (9 - Cat2)   Seattle, WA2:57:45 377586  394 SCCA/Starbucks Cycling
35194.28 Laura DODD (10 - Cat2)   Seattle, WA2:57:45 347268  393 SCCA/Starbucks Cycling
36196.01 Jody FRANK (11 - Cat2)   Huntingdon Valley, PA2:57:45 376978  407 NorthPoint Women's Racing Team
37197.74 Amanda MILLER (5 - Pro)   Fort Collins, CO2:57:45 228513  331 Team TIBCO
38199.47 Breanne NALDER (5 - Cat1)   Murray, UT2:57:45 263791  365 DNA Cycling p/b Plan7
39201.20 Alison TETRICK (6 - Pro)   Mill Valley, CA2:57:45 266806  326 Exergy TWENTY 16
40202.93 Maria SANTIAGO (12 - Cat2)   Durango, CO2:57:45 376546  419 0
41204.66 Jessica CUTLER   Seattle, WA2:57:45 158992  382 Vanderkitten
42206.39 Joy L MCCULLOCH (13 - Cat2)   Yucaipa, CA2:57:45 218863  398 CashCall Mortgage
43208.12 Emily KACHOREK   Sacramento, CA2:57:45 167636  383 Vanderkitten
44 Lauren RAUCK KOMANSKI   2:57:45  302 NOW and Novartis for MS
45211.58 Vanessa JOHNSON (14 - Cat2)   Seattle , WA2:57:45 367844  395 SCCA/Starbucks Cycling
46213.31 Molly VAN HOUWELING (6 - Cat1)   Berkeley, CA2:58:09 201051  377 Metromint Cycling Team
47215.04 Laura RALSTON (15 - Cat2)   Cambridge, MA2:58:09 289751  357 Team Kenda p/b RACC
48 Shoshauna A LAXSON   2:58:27  358 Trek Red Truck Racing Team
49218.50 Amity ELLIOT (7 - Cat1)   Boulder, CO2:58:43 222471  353 Team Kenda p/b RACC
50220.23 Amy PHILLIPS (8 - Cat1)   Chattanooga, TN2:58:54 337516  404 Hub Endurance
51221.96 Meghan GRANT   2:58:54 405231  372 Metromint Cycling Team
52223.69 Lindsay FOX (16 - Cat2)   Phoenix, AZ2:59:06 293037  432 BMC Total Care Racing
53225.42 Courteney LOWE   Asheville, NC2:59:06 379339  314 Optum p/b Kelly Benefits
54227.15 Jade WILCOXSON (7 - Pro)   Talent, OR2:59:06 255887  311 Optum p/b Kelly Benefits
55228.88 Amber GAFFNEY (8 - Pro)   Claremont, CA2:59:06 349836  318 Optum p/b Kelly Benefits
56230.61 Anne DONLEY (9 - Cat1)   Boulder, CO2:59:49 227028  416 0
57232.34 Brianna WALLE (9 - Pro)   Portland, OR2:59:49 353542  312 Optum p/b Kelly Benefits
58234.07 Sabrina DAVID (17 - Cat2)   Boulder, CO2:59:53 291263  371 Metromint Cycling Team
59235.80 Whitney SCHULTZ (10 - Cat1)   Fort Collins, CO3:00:16 252835  347 Team COLAVITA-FINE COOKING
60237.53 Kimberley TURNER (18 - Cat2)   Wheat Ridge, CO3:00:39 260140  421 0
61239.26 Mary ZIDER   Barre, VT3:01:07 212025  348 Team COLAVITA-FINE COOKING
62240.99 Lindsay BAYER (11 - Cat1)   Reston, VA3:01:07 267768  341 Team COLAVITA-FINE COOKING
63242.72 Shelley OLDS (10 - Pro)   Gilroy, CA3:01:07 226087  337 Team TIBCO
64244.45 Meredith MILLER (11 - Pro)   Boulder, CO3:01:07 143575  336 Team TIBCO
65 Jenny S LEHMANN   3:01:21  418 0
66247.91 Annalisa S FISH (19 - Cat2)   Bozeman, MT3:01:21 325964  409 Rockford/Clif
67249.64 Sue BUTLER (20 - Cat2)   Portland, OR3:01:26 211472  434 BMC Total Care Racing
68251.37 Allison ARENSMAN   Rutherford College, NC3:01:26 307916  399 FCS|Zngine p/b Mr. Restore
69253.10 Alexandra BURTON (21 - Cat2)   Portland, OR3:01:26 361902  437 BMC Total Care Racing
70254.83 Leah GULOIEN   3:01:26 433878  345 Team COLAVITA-FINE COOKING
71256.56 Martina PATELLA (12 - Cat1)   Oakland, CA3:02:01 195334  422 Glamour Cats p/b Picco & the Jets
72258.29 Amy MCGUIRE   Jamaica Plain, MA3:02:01 221594  401 FCS|Zngine p/b Mr. Restore
73260.02 Jacquelyn CROWELL (12 - Pro)   Alpharetta, GA3:02:23 185441  323 Exergy TWENTY 16
74261.75 Lauren TAMAYO (13 - Pro)   Asheville, NC3:02:28 103456  325 Exergy TWENTY 16
75263.48 Sarah BARBER (22 - Cat2)   Boise, ID3:02:50 139667  391 SCCA/Starbucks Cycling
76265.21 Lauren DE CRESCENZO (23 - Cat2)   Boulder , CO3:03:19 310650  352 Team Kenda p/b RACC
77266.94 Leah KIRCHMANN   3:03:33 380328  315 Optum p/b Kelly Benefits
78268.67 Lauren HALL (14 - Pro)   Dolores, CO3:03:33 262479  317 Optum p/b Kelly Benefits
79270.40 Jennifer REITHER (13 - Cat1)   Boulder , CO3:03:55 146585  385 Vanderkitten
80272.13 Jamie GILGEN   3:05:48 411833  405 Infinit Canada / Cyclepower
81273.86 Kimberley WELLS   New Hope, PA3:05:48 404612  327 Exergy TWENTY 16
82 Maddi CAMPBELL   3:11:52  344 Team COLAVITA-FINE COOKING
83277.32 Jennifer BURTNER (14 - Cat1)   Olympia, WA3:11:52 273510  396 SCCA/Starbucks Cycling
84279.05 Mikayla LYMAN (24 - Cat2)   Boise, ID3:11:52 241580  364 DNA Cycling p/b Plan7
85280.78 Stephanie A SKOREYKO   Slc, UT3:11:52 287156  420 0
86282.51 Anne PERRY (15 - Cat1)   Draper, UT3:11:52 339882  367 DNA Cycling p/b Plan7
87284.24 Anne USHER (25 - Cat2)   Portland, OR3:11:52 321448  433 BMC Total Care Racing
88285.97 Kerry MARTIN (26 - Cat2)   Bend, OR3:14:20 189445  435 BMC Total Care Racing
89287.70 Jennifer APP (27 - Cat2)   Bend, OR3:16:02 351910  412 0
90289.43 Brenna LOPEZ-OTERO (16 - Cat1)   Bend, OR3:17:16 89447  431 BMC Total Care Racing
91291.16 Megan HILL (28 - Cat2)   Saratoga Springs, UT3:36:13 311104  363 DNA Cycling p/b Plan7
DNF Denise RAMSDEN    402641  313 Optum p/b Kelly Benefits
DNF Keri GIBSON (Cat2)   Pleasantview, UT 294391  362 DNA Cycling p/b Plan7
DNF Amy THORNQUIST (Cat1)   Park City, UT 366700  368 DNA Cycling p/b Plan7
DNF Sophie WILLIAMSON     387 Vanderkitten
DNF Kaelly FARNHAM (Cat2)   Santa Rosa 290436  400 FCS|Zngine p/b Mr. Restore

Report missing or incorrect license numbers

Volkswagen
SpySierra NevadaOSMOBonk BreakerShimanoUSACDFCUORE
UCI USA Cycling is the official governing body for all disciplines of competitive cycling in the United States. The 501c3, membership-based organization aims both to achieve sustained success in international cycling competition and to grow competitive cycling in America while delivering an exceptional customer experience.
View Children's Online Privacy Protection Policy
US Olympic Committee